Red Bank, Tennessee
Current Conditions -  °F | °C
As of 5:53 AM on Friday 28 Nov 2014 (Local Time) from KCHA Reporting Station
Scattered Clouds Scattered Clouds  
Wind Chill: 23°   Ceiling: Unl
Heat Index: 28°   Visibility: 10mi
Dew Point: 20°   Wind: 5mph
Humidity: 72%   Direction: 290°WNW
Pressure: 30.42"   Gusts: NA
Location:  35.11°N, 85.3°W
Report Text: KCHA 281053Z 29004KT 10SM SCT032 M02/M07 A3042 RMK AO2 SLP306 FIRST T10221067
Loading
Personal Weather Stations






























Interactive Weather Map New forecast layout! Learn more

10-Day Weather Forecast

Advertisements
Track Severe Weather on mobile